Terminal Aerodrome Forecast
Issued by NWS Wichita, KS

Home | Current Version | Previous Version | Text Only | Print | Product List | Glossary On
Versions: 1 2 3 4 5 6 7 8 9 10 11 12 13 14 15 16 17 18 19 20 21 22 23 24
000
FTUS43 KICT 172241 AAC
TAFICT
TAF AMD
KICT 172241Z 1723/1818 13013KT 3SM -SN BKN015
     FM180200 12009KT 5SM -FZDZSN OVC009
     FM180500 12009KT 3SM -SN OVC012
     FM181200 10008KT 5SM -FZDZ OVC009
     FM181500 03007KT P6SM -DZ OVC009=

USA.gov is the U.S. government's official web portal to all federal, state and local government web resources and services.